DLH14E EDDB-LZIB
Flight info
| Callsign | DLH14E |
|---|---|
| Flight time | N/A |
| Altitude | 35000 |
| Route | ARSAP4B/06L ARSAP DCT OLUMA DCT KULUV DCT DESEN DCT UPLAV/N0284F090 P10 BERVA |
| Aircraft | A343/H-SDE2E3FGHIJ4J5M1RWXY/LB1D1 |
Departure
| Time | N/A |
|---|---|
| Airport | Berlin Brandenburg Airport (EDDB) |
Arrival
| Time | 2026-05-05 14:52 |
|---|---|
| Airport | M. R. Štefánik Airport (LZIB) |
| Time | Latitude | Longitude | Altitude | Speed | Heading |
|---|---|---|---|---|---|
| 2026-05-05 14:31 | 49.78915 | 17.52281 | 29435 ft | 462 kts | 181° |
| 2026-05-05 14:31 | 49.75716 | 17.52319 | 28704 ft | 458 kts | 181° |
| 2026-05-05 14:31 | 49.72570 | 17.52358 | 27981 ft | 455 kts | 181° |
| 2026-05-05 14:32 | 49.69413 | 17.52396 | 27237 ft | 453 kts | 181° |
| 2026-05-05 14:32 | 49.66253 | 17.52435 | 26524 ft | 451 kts | 181° |
| 2026-05-05 14:32 | 49.63145 | 17.52473 | 25967 ft | 445 kts | 182° |
| 2026-05-05 14:32 | 49.60048 | 17.52512 | 25372 ft | 441 kts | 182° |
| 2026-05-05 14:33 | 49.56994 | 17.52549 | 24784 ft | 436 kts | 182° |
| 2026-05-05 14:33 | 49.53957 | 17.52584 | 24070 ft | 436 kts | 182° |
| 2026-05-05 14:33 | 49.50930 | 17.52617 | 23424 ft | 434 kts | 181° |
| 2026-05-05 14:33 | 49.47918 | 17.52653 | 22736 ft | 431 kts | 181° |
| 2026-05-05 14:34 | 49.44933 | 17.52689 | 22150 ft | 426 kts | 182° |
| 2026-05-05 14:34 | 49.41986 | 17.52725 | 21529 ft | 421 kts | 182° |
| 2026-05-05 14:34 | 49.39104 | 17.52765 | 20967 ft | 416 kts | 182° |
| 2026-05-05 14:34 | 49.36231 | 17.52800 | 20435 ft | 410 kts | 181° |
| 2026-05-05 14:35 | 49.33385 | 17.52835 | 19766 ft | 409 kts | 182° |
| 2026-05-05 14:35 | 49.30540 | 17.52873 | 19204 ft | 405 kts | 181° |
| 2026-05-05 14:35 | 49.27733 | 17.52921 | 18604 ft | 402 kts | 181° |
| 2026-05-05 14:35 | 49.24952 | 17.52974 | 18156 ft | 396 kts | 182° |
| 2026-05-05 14:36 | 49.22221 | 17.53025 | 17577 ft | 391 kts | 181° |
| 2026-05-05 14:36 | 49.19508 | 17.53076 | 17039 ft | 386 kts | 181° |
| 2026-05-05 14:36 | 49.16845 | 17.53127 | 16531 ft | 380 kts | 181° |
| 2026-05-05 14:36 | 49.14219 | 17.53174 | 15992 ft | 375 kts | 181° |
| 2026-05-05 14:37 | 49.11616 | 17.53219 | 15372 ft | 373 kts | 181° |
| 2026-05-05 14:37 | 49.09046 | 17.53265 | 14889 ft | 367 kts | 181° |
| 2026-05-05 14:37 | 49.06507 | 17.53310 | 14289 ft | 365 kts | 181° |
| 2026-05-05 14:37 | 49.04012 | 17.53354 | 13755 ft | 362 kts | 181° |
| 2026-05-05 14:38 | 49.01506 | 17.53399 | 13293 ft | 356 kts | 180° |
| 2026-05-05 14:38 | 48.99048 | 17.53445 | 12673 ft | 353 kts | 181° |
| 2026-05-05 14:38 | 48.96573 | 17.53489 | 11902 ft | 355 kts | 181° |
| 2026-05-05 14:38 | 48.94100 | 17.53533 | 11287 ft | 353 kts | 180° |
| 2026-05-05 14:39 | 48.91650 | 17.53576 | 10889 ft | 353 kts | 180° |
| 2026-05-05 14:39 | 48.89182 | 17.53618 | 10522 ft | 356 kts | 180° |
| 2026-05-05 14:39 | 48.86722 | 17.53662 | 10188 ft | 352 kts | 180° |
| 2026-05-05 14:39 | 48.84270 | 17.53707 | 9824 ft | 353 kts | 180° |
| 2026-05-05 14:40 | 48.81851 | 17.53750 | 9489 ft | 350 kts | 180° |
| 2026-05-05 14:40 | 48.79425 | 17.53799 | 9118 ft | 348 kts | 180° |
| 2026-05-05 14:40 | 48.77018 | 17.53842 | 8776 ft | 343 kts | 180° |
| 2026-05-05 14:40 | 48.74626 | 17.53885 | 8452 ft | 342 kts | 180° |
| 2026-05-05 14:41 | 48.72260 | 17.53928 | 8174 ft | 338 kts | 180° |
| 2026-05-05 14:41 | 48.69938 | 17.53970 | 7878 ft | 327 kts | 180° |
| 2026-05-05 14:41 | 48.67702 | 17.54007 | 7605 ft | 315 kts | 181° |
| 2026-05-05 14:41 | 48.65528 | 17.54033 | 7307 ft | 312 kts | 180° |
| 2026-05-05 14:42 | 48.63385 | 17.54074 | 7023 ft | 310 kts | 180° |
| 2026-05-05 14:42 | 48.61230 | 17.54024 | 6744 ft | 310 kts | 184° |
| 2026-05-05 14:42 | 48.59073 | 17.53779 | 6458 ft | 309 kts | 186° |
| 2026-05-05 14:42 | 48.56961 | 17.53504 | 6175 ft | 299 kts | 186° |
| 2026-05-05 14:43 | 48.54919 | 17.53236 | 5907 ft | 289 kts | 186° |
| 2026-05-05 14:43 | 48.52958 | 17.52979 | 5730 ft | 277 kts | 186° |
| 2026-05-05 14:43 | 48.51080 | 17.52735 | 5588 ft | 265 kts | 186° |
| 2026-05-05 14:43 | 48.49271 | 17.52502 | 5308 ft | 259 kts | 186° |
| 2026-05-05 14:44 | 48.47488 | 17.52270 | 4938 ft | 256 kts | 185° |
| 2026-05-05 14:44 | 48.45744 | 17.52047 | 4568 ft | 254 kts | 185° |
| 2026-05-05 14:44 | 48.43966 | 17.51817 | 4186 ft | 251 kts | 185° |
| 2026-05-05 14:44 | 48.42240 | 17.51598 | 3816 ft | 247 kts | 185° |
| 2026-05-05 14:45 | 48.40555 | 17.51381 | 3470 ft | 245 kts | 185° |
| 2026-05-05 14:45 | 48.38859 | 17.51149 | 3090 ft | 243 kts | 187° |
| 2026-05-05 14:45 | 48.37296 | 17.50283 | 2729 ft | 242 kts | 210° |
| 2026-05-05 14:45 | 48.35987 | 17.48724 | 2532 ft | 235 kts | 219° |
| 2026-05-05 14:46 | 48.34840 | 17.47070 | 2519 ft | 221 kts | 222° |
| 2026-05-05 14:46 | 48.33775 | 17.45506 | 2517 ft | 208 kts | 222° |
| 2026-05-05 14:46 | 48.32772 | 17.44041 | 2490 ft | 194 kts | 221° |
| 2026-05-05 14:46 | 48.31849 | 17.42703 | 2541 ft | 175 kts | 218° |
| 2026-05-05 14:47 | 48.31013 | 17.41496 | 2526 ft | 159 kts | 218° |
| 2026-05-05 14:47 | 48.30216 | 17.40353 | 2506 ft | 161 kts | 217° |
| 2026-05-05 14:47 | 48.29387 | 17.39167 | 2499 ft | 166 kts | 218° |
| 2026-05-05 14:47 | 48.28553 | 17.37965 | 2490 ft | 166 kts | 219° |
| 2026-05-05 14:48 | 48.27717 | 17.36752 | 2500 ft | 167 kts | 218° |
| 2026-05-05 14:48 | 48.26889 | 17.35546 | 2492 ft | 160 kts | 218° |
| 2026-05-05 14:48 | 48.26152 | 17.34471 | 2490 ft | 136 kts | 218° |
| 2026-05-05 14:48 | 48.25504 | 17.33534 | 2470 ft | 127 kts | 218° |
| 2026-05-05 14:49 | 48.24864 | 17.32614 | 2327 ft | 128 kts | 216° |
| 2026-05-05 14:49 | 48.24221 | 17.31688 | 2141 ft | 129 kts | 216° |
| 2026-05-05 14:49 | 48.23717 | 17.30958 | 2004 ft | 129 kts | 217° |
| 2026-05-05 14:49 | 48.23077 | 17.30030 | 1855 ft | 126 kts | 216° |
| 2026-05-05 14:50 | 48.22445 | 17.29119 | 1688 ft | 126 kts | 217° |
| 2026-05-05 14:50 | 48.21813 | 17.28207 | 1512 ft | 126 kts | 219° |
| 2026-05-05 14:50 | 48.21180 | 17.27288 | 1341 ft | 126 kts | 218° |
| 2026-05-05 14:50 | 48.20551 | 17.26381 | 1165 ft | 126 kts | 217° |
| 2026-05-05 14:51 | 48.19919 | 17.25468 | 1011 ft | 126 kts | 215° |
| 2026-05-05 14:51 | 48.19280 | 17.24546 | 824 ft | 128 kts | 216° |
| 2026-05-05 14:51 | 48.18656 | 17.23624 | 658 ft | 122 kts | 216° |
| 2026-05-05 14:51 | 48.18076 | 17.22803 | 487 ft | 111 kts | 214° |
| 2026-05-05 14:52 | 48.17542 | 17.22057 | 423 ft | 84 kts | 223° |
| 2026-05-05 14:52 | 48.17253 | 17.21639 | 424 ft | 33 kts | 224° |
| 2026-05-05 14:52 | 48.17138 | 17.21471 | 421 ft | 21 kts | 224° |
| 2026-05-05 14:52 | 48.17041 | 17.21333 | 422 ft | 19 kts | 223° |
| 2026-05-05 14:53 | 48.16943 | 17.21193 | 419 ft | 20 kts | 224° |
| 2026-05-05 14:53 | 48.16906 | 17.21063 | 426 ft | 12 kts | 284° |
| 2026-05-05 14:53 | 48.16952 | 17.20977 | 420 ft | 10 kts | 320° |
| 2026-05-05 14:53 | 48.17005 | 17.20901 | 423 ft | 12 kts | 313° |
| 2026-05-05 14:54 | 48.17069 | 17.20798 | 425 ft | 15 kts | 313° |
| 2026-05-05 14:54 | 48.17142 | 17.20678 | 421 ft | 17 kts | 312° |
| 2026-05-05 14:54 | 48.17158 | 17.20566 | 422 ft | 7 kts | 242° |
| 2026-05-05 14:54 | 48.17132 | 17.20527 | 423 ft | 6 kts | 224° |
| 2026-05-05 14:55 | 48.17105 | 17.20487 | 423 ft | 7 kts | 224° |
| 2026-05-05 14:55 | 48.17066 | 17.20429 | 423 ft | 9 kts | 224° |
| 2026-05-05 14:55 | 48.17026 | 17.20371 | 421 ft | 10 kts | 224° |
| 2026-05-05 14:55 | 48.16986 | 17.20313 | 424 ft | 8 kts | 223° |
| 2026-05-05 14:56 | 48.16978 | 17.20302 | 425 ft | 1 kts | 223° |
| 2026-05-05 14:56 | 48.16967 | 17.20287 | 428 ft | 3 kts | 223° |
| 2026-05-05 14:56 | 48.16952 | 17.20258 | 421 ft | 4 kts | 242° |
| 2026-05-05 14:56 | 48.16951 | 17.20229 | 425 ft | 3 kts | 278° |
| 2026-05-05 14:57 | 48.16960 | 17.20199 | 421 ft | 2 kts | 303° |
| 2026-05-05 14:57 | 48.16967 | 17.20188 | 421 ft | 0 kts | 309° |
| 2026-05-05 14:57 | 48.16968 | 17.20186 | 421 ft | 0 kts | 309° |
| 2026-05-05 14:57 | 48.16968 | 17.20185 | 421 ft | 0 kts | 309° |